Time;durP1;ratioP1;P1;durP2;ratioP2;P2;SDS_P1;SDS_P2;PMS_P1;PMS_P2;Temp;Humidity;BMP_temperature;BMP_pressure;BME280_temperature;BME280_humidity;BME280_pressure;Samples;Min_cycle;Max_cycle;Signal;HPM_P1;HPM_P2
2023/06/11 00:00:41;;;;;;;5.90;5.40;;;;;;;;;;5051414;28;20208;-74
2023/06/11 00:03:07;;;;;;;5.80;5.30;;;;;;;;;;5028653;28;20182;-74
2023/06/11 00:05:32;;;;;;;5.70;5.30;;;;;;;;;;5039729;28;20219;-74
2023/06/11 00:08:00;;;;;;;5.70;5.20;;;;;;;;;;5073714;28;20176;-74
2023/06/11 00:10:25;;;;;;;6.27;5.77;;;;;;;;;;5076322;28;20175;-74
2023/06/11 00:12:51;;;;;;;5.63;5.23;;;;;;;;;;5048552;28;20206;-74
2023/06/11 00:15:16;;;;;;;6.07;5.50;;;;;;;;;;5051788;28;20196;-74
2023/06/11 00:17:41;;;;;;;6.00;5.50;;;;;;;;;;5055184;28;20202;-74
2023/06/11 00:20:09;;;;;;;6.33;5.73;;;;;;;;;;5051447;28;20178;-74
2023/06/11 00:22:35;;;;;;;5.83;5.10;;;;;;;;;;5067929;28;20206;-73
2023/06/11 00:25:00;;;;;;;6.33;5.83;;;;;;;;;;5056414;28;20181;-73
2023/06/11 00:27:26;;;;;;;6.57;5.97;;;;;;;;;;5050955;28;20193;-73
2023/06/11 00:29:52;;;;;;;7.80;5.47;;;;;;;;;;5066806;28;20178;-74
2023/06/11 00:32:17;;;;;;;6.13;5.63;;;;;;;;;;5071767;28;20214;-74
2023/06/11 00:34:42;;;;;;;6.00;5.50;;;;;;;;;;5069688;28;20181;-74
2023/06/11 00:37:08;;;;;;;9.47;6.37;;;;;;;;;;5044425;28;20184;-73
2023/06/11 00:39:33;;;;;;;7.30;6.70;;;;;;;;;;5069510;28;20253;-73
2023/06/11 00:41:59;;;;;;;7.33;6.63;;;;;;;;;;5067566;28;20268;-73
2023/06/11 00:44:24;;;;;;;6.43;5.83;;;;;;;;;;5068115;28;20203;-73
2023/06/11 00:46:51;;;;;;;6.90;6.30;;;;;;;;;;5051128;28;20175;-73
2023/06/11 00:49:16;;;;;;;6.43;5.87;;;;;;;;;;5052140;28;20182;-73
2023/06/11 00:51:42;;;;;;;6.03;5.53;;;;;;;;;;5064618;28;20228;-73
2023/06/11 00:54:16;;;;;;;6.87;6.17;;;;;;;;;;5054038;28;20268;-74
2023/06/11 00:56:43;;;;;;;6.67;6.07;;;;;;;;;;5070965;28;20194;-74
2023/06/11 00:59:09;;;;;;;6.63;6.13;;;;;;;;;;5070512;28;20172;-73
2023/06/11 01:01:41;;;;;;;7.37;6.67;;;;;;;;;;5076723;28;20177;-74
2023/06/11 01:04:08;;;;;;;7.37;6.40;;;;;;;;;;5079399;28;20174;-74
2023/06/11 01:06:34;;;;;;;6.37;5.87;;;;;;;;;;5070202;28;20229;-73
2023/06/11 01:09:00;;;;;;;6.63;6.03;;;;;;;;;;5076581;28;20227;-74
2023/06/11 01:11:27;;;;;;;8.97;6.37;;;;;;;;;;5054556;28;20289;-73
2023/06/11 01:13:53;;;;;;;6.73;6.13;;;;;;;;;;5075333;28;20189;-73
2023/06/11 01:16:32;;;;;;;8.20;6.93;;;;;;;;;;5058535;28;20177;-73
2023/06/11 01:19:18;;;;;;;7.80;6.50;;;;;;;;;;5072229;28;20177;-73
2023/06/11 01:21:46;;;;;;;6.93;6.33;;;;;;;;;;5050458;28;20225;-74
2023/06/11 01:24:26;;;;;;;7.43;6.83;;;;;;;;;;5067238;28;20261;-74
2023/06/11 01:27:09;;;;;;;7.37;6.77;;;;;;;;;;5078163;28;20205;-74
2023/06/11 01:29:37;;;;;;;6.43;5.93;;;;;;;;;;5069000;28;20180;-73
2023/06/11 01:32:03;;;;;;;6.73;6.13;;;;;;;;;;5051592;28;20196;-73
2023/06/11 01:34:28;;;;;;;7.33;6.67;;;;;;;;;;5071013;28;20233;-73
2023/06/11 01:36:54;;;;;;;6.70;6.10;;;;;;;;;;5053596;28;20245;-74
2023/06/11 01:39:19;;;;;;;7.90;6.57;;;;;;;;;;5051294;28;20192;-74
2023/06/11 01:41:45;;;;;;;7.43;6.73;;;;;;;;;;5069750;28;20212;-74
2023/06/11 01:44:10;;;;;;;6.70;6.20;;;;;;;;;;5054327;28;20184;-73
2023/06/11 01:46:35;;;;;;;7.47;6.87;;;;;;;;;;5068899;28;20191;-73
2023/06/11 01:49:00;;;;;;;7.30;6.60;;;;;;;;;;5069038;28;20272;-74
2023/06/11 01:51:26;;;;;;;6.73;6.03;;;;;;;;;;5068549;28;20275;-74
2023/06/11 01:53:51;;;;;;;7.53;6.83;;;;;;;;;;5071575;28;20173;-73
2023/06/11 01:56:16;;;;;;;7.83;7.00;;;;;;;;;;5045430;28;20184;-73
2023/06/11 01:58:45;;;;;;;8.07;7.37;;;;;;;;;;5075402;28;20177;-73
2023/06/11 02:01:10;;;;;;;7.80;7.03;;;;;;;;;;5054347;28;20200;-73
2023/06/11 02:03:35;;;;;;;7.63;6.83;;;;;;;;;;5068992;28;20181;-73
2023/06/11 02:06:01;;;;;;;7.40;6.70;;;;;;;;;;5050957;28;20253;-73
2023/06/11 02:08:26;;;;;;;7.07;6.47;;;;;;;;;;5052664;28;20176;-73
2023/06/11 02:10:52;;;;;;;7.53;6.87;;;;;;;;;;5067893;28;20361;-73
2023/06/11 02:13:17;;;;;;;7.07;6.47;;;;;;;;;;5066384;28;20176;-73
2023/06/11 02:15:42;;;;;;;8.13;7.43;;;;;;;;;;5073061;28;20172;-73
2023/06/11 02:18:07;;;;;;;7.73;7.03;;;;;;;;;;5065852;28;20190;-73
2023/06/11 02:20:32;;;;;;;7.83;7.13;;;;;;;;;;5043819;28;20247;-73
2023/06/11 02:22:58;;;;;;;8.30;7.50;;;;;;;;;;5068458;28;20242;-74
2023/06/11 02:25:23;;;;;;;7.17;6.47;;;;;;;;;;5071262;28;20176;-73
2023/06/11 02:27:51;;;;;;;9.47;7.30;;;;;;;;;;5067343;28;20200;-73
2023/06/11 02:30:16;;;;;;;7.07;6.47;;;;;;;;;;5062464;28;20180;-73
2023/06/11 02:32:42;;;;;;;7.60;6.90;;;;;;;;;;5058168;28;20203;-74
2023/06/11 02:35:08;;;;;;;8.80;8.10;;;;;;;;;;5050212;28;20188;-73
2023/06/11 02:37:33;;;;;;;8.20;7.37;;;;;;;;;;5050075;28;20185;-73
2023/06/11 02:39:58;;;;;;;8.13;7.47;;;;;;;;;;5051161;28;20182;-73
2023/06/11 02:42:23;;;;;;;8.40;7.60;;;;;;;;;;5072814;28;20215;-73
2023/06/11 02:44:49;;;;;;;8.20;7.50;;;;;;;;;;5067083;28;20236;-73
2023/06/11 02:47:14;;;;;;;8.27;7.57;;;;;;;;;;5070728;28;20244;-73
2023/06/11 02:49:39;;;;;;;7.63;6.77;;;;;;;;;;5070151;28;20175;-73
2023/06/11 02:52:05;;;;;;;9.53;8.60;;;;;;;;;;5056887;28;20214;-73
2023/06/11 02:54:30;;;;;;;8.27;7.57;;;;;;;;;;5071563;28;20172;-73
2023/06/11 02:56:56;;;;;;;7.90;7.17;;;;;;;;;;5072404;28;20197;-73
2023/06/11 02:59:21;;;;;;;7.97;7.23;;;;;;;;;;5071642;28;20171;-73
2023/06/11 03:01:46;;;;;;;8.30;7.50;;;;;;;;;;5067708;28;20175;-73
2023/06/11 03:04:11;;;;;;;7.47;6.77;;;;;;;;;;5067433;28;20293;-73
2023/06/11 03:06:37;;;;;;;8.50;7.33;;;;;;;;;;5057228;28;20231;-73
2023/06/11 03:09:02;;;;;;;7.33;6.67;;;;;;;;;;5056867;28;20224;-73
2023/06/11 03:11:27;;;;;;;8.50;7.80;;;;;;;;;;5051336;28;20302;-73
2023/06/11 03:13:52;;;;;;;6.97;6.37;;;;;;;;;;5075528;28;20193;-73
2023/06/11 03:16:18;;;;;;;8.23;7.43;;;;;;;;;;5050317;28;20204;-73
2023/06/11 03:18:43;;;;;;;7.40;6.80;;;;;;;;;;5049989;28;20181;-73
2023/06/11 03:21:09;;;;;;;8.03;7.23;;;;;;;;;;5069343;28;20307;-73
2023/06/11 03:23:34;;;;;;;8.03;7.33;;;;;;;;;;5069726;28;20185;-73
2023/06/11 03:25:59;;;;;;;7.60;7.00;;;;;;;;;;5049523;28;20182;-73
2023/06/11 03:28:26;;;;;;;8.50;7.63;;;;;;;;;;5046246;28;20179;-73
2023/06/11 03:30:51;;;;;;;8.80;7.97;;;;;;;;;;5048251;28;20190;-74
2023/06/11 03:33:16;;;;;;;8.53;7.57;;;;;;;;;;5052173;28;20174;-73
2023/06/11 03:35:42;;;;;;;9.17;7.63;;;;;;;;;;5058245;28;20241;-73
2023/06/11 03:38:07;;;;;;;8.53;7.70;;;;;;;;;;5069299;28;20284;-73
2023/06/11 03:40:32;;;;;;;8.97;8.17;;;;;;;;;;5061672;28;20233;-73
2023/06/11 03:42:57;;;;;;;9.23;7.40;;;;;;;;;;5066160;28;20226;-73
2023/06/11 03:45:22;;;;;;;7.33;6.73;;;;;;;;;;5059508;28;20175;-73
2023/06/11 03:47:52;;;;;;;8.80;8.03;;;;;;;;;;5054656;28;20294;-73
2023/06/11 03:50:17;;;;;;;8.00;7.30;;;;;;;;;;5067971;28;20189;-73
2023/06/11 03:52:42;;;;;;;7.17;6.47;;;;;;;;;;5071044;28;20177;-73
2023/06/11 03:55:08;;;;;;;8.53;7.77;;;;;;;;;;5066967;28;20183;-73
2023/06/11 03:57:33;;;;;;;8.93;8.13;;;;;;;;;;5078880;28;20341;-73
2023/06/11 03:59:58;;;;;;;8.20;7.40;;;;;;;;;;5050635;28;20195;-73
2023/06/11 04:02:23;;;;;;;10.73;8.23;;;;;;;;;;5050844;28;20181;-73
2023/06/11 04:04:50;;;;;;;7.73;6.93;;;;;;;;;;5052342;28;20237;-73
2023/06/11 04:07:15;;;;;;;8.43;7.63;;;;;;;;;;5076753;28;20295;-73
2023/06/11 04:09:40;;;;;;;8.70;7.90;;;;;;;;;;5073675;28;20271;-73
2023/06/11 04:12:06;;;;;;;8.13;7.43;;;;;;;;;;5073033;28;20208;-73
2023/06/11 04:14:31;;;;;;;7.93;7.23;;;;;;;;;;5073404;28;20242;-73
2023/06/11 04:16:56;;;;;;;7.83;6.60;;;;;;;;;;5068021;28;20170;-73
2023/06/11 04:19:22;;;;;;;8.27;7.60;;;;;;;;;;5047497;28;20179;-73
2023/06/11 04:21:47;;;;;;;8.87;8.07;;;;;;;;;;5069747;28;20177;-73
2023/06/11 04:24:12;;;;;;;7.97;7.27;;;;;;;;;;5067894;28;20208;-73
2023/06/11 04:26:37;;;;;;;8.10;7.20;;;;;;;;;;5068734;28;20232;-73
2023/06/11 04:29:03;;;;;;;8.03;7.27;;;;;;;;;;5069035;28;20210;-73
2023/06/11 04:31:29;;;;;;;7.60;6.93;;;;;;;;;;5075363;28;20287;-73
2023/06/11 04:34:02;;;;;;;8.67;7.93;;;;;;;;;;5072515;28;20206;-73
2023/06/11 04:36:28;;;;;;;7.87;7.27;;;;;;;;;;5075721;28;20171;-73
2023/06/11 04:38:54;;;;;;;7.97;7.27;;;;;;;;;;5057115;28;20167;-73
2023/06/11 04:41:22;;;;;;;7.97;7.30;;;;;;;;;;5074260;28;20179;-73
2023/06/11 04:43:48;;;;;;;7.67;6.97;;;;;;;;;;5056085;28;20181;-73
2023/06/11 04:46:13;;;;;;;7.87;7.27;;;;;;;;;;5069223;28;20182;-73
2023/06/11 04:48:38;;;;;;;7.90;7.20;;;;;;;;;;5053323;28;20236;-73
2023/06/11 04:51:04;;;;;;;7.90;7.20;;;;;;;;;;5055564;28;20180;-73
2023/06/11 04:53:30;;;;;;;7.73;7.03;;;;;;;;;;5066294;28;20194;-73
2023/06/11 04:55:57;;;;;;;7.97;7.27;;;;;;;;;;5079008;28;20171;-73
2023/06/11 04:58:23;;;;;;;8.33;7.60;;;;;;;;;;5066336;28;20200;-73
2023/06/11 05:00:48;;;;;;;7.40;6.70;;;;;;;;;;5069096;28;20171;-73
2023/06/11 05:03:16;;;;;;;7.53;6.93;;;;;;;;;;5051482;28;20174;-73
2023/06/11 05:05:41;;;;;;;8.07;7.30;;;;;;;;;;5054899;28;20227;-73
2023/06/11 05:08:07;;;;;;;8.23;7.47;;;;;;;;;;5076607;28;20171;-73
2023/06/11 05:10:32;;;;;;;8.13;7.30;;;;;;;;;;5072851;28;20176;-73
2023/06/11 05:12:57;;;;;;;8.57;7.40;;;;;;;;;;5073284;28;20196;-73
2023/06/11 05:15:22;;;;;;;7.37;6.77;;;;;;;;;;5056881;28;20246;-73
2023/06/11 05:17:47;;;;;;;7.90;7.10;;;;;;;;;;5051058;28;20168;-73
2023/06/11 05:20:13;;;;;;;7.23;6.63;;;;;;;;;;5081838;28;20309;-73
2023/06/11 05:22:38;;;;;;;7.20;6.60;;;;;;;;;;5072011;28;20206;-73
2023/06/11 05:25:04;;;;;;;7.67;6.87;;;;;;;;;;5064215;28;20230;-73
2023/06/11 05:27:29;;;;;;;7.70;7.00;;;;;;;;;;5070491;28;20268;-73
2023/06/11 05:29:55;;;;;;;7.10;6.50;;;;;;;;;;5073435;28;20226;-73
2023/06/11 05:32:21;;;;;;;8.83;8.03;;;;;;;;;;5076009;28;20215;-73
2023/06/11 05:34:49;;;;;;;7.20;6.60;;;;;;;;;;5060849;28;20178;-73
2023/06/11 05:37:15;;;;;;;7.93;7.23;;;;;;;;;;5076879;28;20177;-73
2023/06/11 05:39:40;;;;;;;8.40;7.70;;;;;;;;;;5051644;28;20180;-73
2023/06/11 05:42:06;;;;;;;8.80;7.03;;;;;;;;;;5075687;28;20184;-73
2023/06/11 05:44:31;;;;;;;8.37;7.60;;;;;;;;;;5054837;28;20200;-73
2023/06/11 05:46:57;;;;;;;8.13;7.47;;;;;;;;;;5051203;28;20174;-73
2023/06/11 05:49:22;;;;;;;7.73;7.03;;;;;;;;;;5071567;28;20177;-73
2023/06/11 05:51:47;;;;;;;8.07;7.30;;;;;;;;;;5074117;28;20286;-73
2023/06/11 05:54:12;;;;;;;8.60;7.77;;;;;;;;;;5054715;28;20185;-73
2023/06/11 05:56:37;;;;;;;7.53;6.93;;;;;;;;;;5052421;28;20197;-73
2023/06/11 05:59:03;;;;;;;8.73;7.87;;;;;;;;;;5052872;28;20176;-73
2023/06/11 06:01:28;;;;;;;9.57;8.67;;;;;;;;;;5053488;28;20230;-73
2023/06/11 06:03:55;;;;;;;8.07;7.43;;;;;;;;;;5049006;28;20187;-73
2023/06/11 06:06:20;;;;;;;7.80;7.10;;;;;;;;;;5048990;28;20221;-73
2023/06/11 06:08:45;;;;;;;7.73;7.13;;;;;;;;;;5056013;28;20191;-73
2023/06/11 06:11:10;;;;;;;7.50;6.90;;;;;;;;;;5075233;28;20208;-73
2023/06/11 06:13:36;;;;;;;7.33;6.63;;;;;;;;;;5065527;28;20267;-73
2023/06/11 06:16:01;;;;;;;7.27;6.57;;;;;;;;;;5071170;28;20195;-73
2023/06/11 06:18:27;;;;;;;8.43;7.73;;;;;;;;;;5046704;28;20168;-73
2023/06/11 06:20:53;;;;;;;7.80;7.10;;;;;;;;;;5071606;28;20275;-73
2023/06/11 06:23:18;;;;;;;6.73;6.13;;;;;;;;;;5054228;28;20264;-73
2023/06/11 06:25:43;;;;;;;7.80;7.10;;;;;;;;;;5068546;28;20182;-73
2023/06/11 06:28:08;;;;;;;7.27;6.67;;;;;;;;;;5051765;28;20193;-73
2023/06/11 06:30:34;;;;;;;7.67;7.00;;;;;;;;;;5057316;28;20180;-73
2023/06/11 06:33:00;;;;;;;8.00;7.23;;;;;;;;;;5073364;28;20193;-73
2023/06/11 06:35:25;;;;;;;7.80;7.13;;;;;;;;;;5067318;28;20193;-73
2023/06/11 06:37:50;;;;;;;7.10;6.50;;;;;;;;;;5072339;28;20176;-73
2023/06/11 06:40:15;;;;;;;7.77;6.97;;;;;;;;;;5062909;28;20220;-73
2023/06/11 06:42:41;;;;;;;7.00;6.30;;;;;;;;;;5063883;28;20181;-73
2023/06/11 06:45:06;;;;;;;8.13;7.43;;;;;;;;;;5068408;28;20267;-73
2023/06/11 06:47:31;;;;;;;7.27;6.67;;;;;;;;;;5072440;28;20211;-73
2023/06/11 06:49:56;;;;;;;7.83;7.20;;;;;;;;;;5053794;28;20173;-73
2023/06/11 06:52:22;;;;;;;8.60;7.73;;;;;;;;;;5054599;28;20203;-73
2023/06/11 06:54:48;;;;;;;7.23;6.53;;;;;;;;;;5048306;28;20251;-73
2023/06/11 06:57:13;;;;;;;7.77;7.07;;;;;;;;;;5052334;28;20213;-73
2023/06/11 06:59:39;;;;;;;7.47;6.87;;;;;;;;;;5072032;28;20218;-73
2023/06/11 07:02:05;;;;;;;7.43;6.73;;;;;;;;;;5065624;28;20202;-73
2023/06/11 07:04:30;;;;;;;7.40;6.73;;;;;;;;;;5046774;28;20188;-73
2023/06/11 07:06:55;;;;;;;8.17;7.37;;;;;;;;;;5047502;28;20237;-73
2023/06/11 07:09:21;;;;;;;7.40;6.60;;;;;;;;;;5047320;28;20294;-73
2023/06/11 07:11:47;;;;;;;7.60;7.00;;;;;;;;;;5028952;28;20217;-73
2023/06/11 07:14:13;;;;;;;6.60;6.10;;;;;;;;;;5030095;28;20180;-73
2023/06/11 07:16:38;;;;;;;9.30;7.20;;;;;;;;;;5054345;28;20225;-73
2023/06/11 07:19:03;;;;;;;7.57;6.87;;;;;;;;;;5055952;28;20172;-73
2023/06/11 07:21:28;;;;;;;8.20;7.40;;;;;;;;;;5057001;28;20259;-73
2023/06/11 07:23:53;;;;;;;6.77;6.27;;;;;;;;;;5036635;28;20184;-73
2023/06/11 07:26:19;;;;;;;7.30;6.00;;;;;;;;;;5028586;28;20180;-73
2023/06/11 07:28:44;;;;;;;7.20;6.60;;;;;;;;;;5041191;28;20187;-73
2023/06/11 07:31:10;;;;;;;7.23;6.60;;;;;;;;;;5033437;28;20183;-73
2023/06/11 07:33:35;;;;;;;6.90;6.30;;;;;;;;;;5057170;28;20194;-73
2023/06/11 07:36:00;;;;;;;6.93;6.23;;;;;;;;;;5046025;28;20187;-73
2023/06/11 07:38:25;;;;;;;7.67;7.07;;;;;;;;;;5029311;28;20261;-73
2023/06/11 07:40:51;;;;;;;6.63;6.13;;;;;;;;;;5051749;28;20180;-73
2023/06/11 07:43:16;;;;;;;6.67;5.93;;;;;;;;;;5044154;28;20233;-73
2023/06/11 07:45:43;;;;;;;6.60;6.00;;;;;;;;;;5047075;28;20206;-73
2023/06/11 07:48:08;;;;;;;6.87;6.20;;;;;;;;;;5040623;28;20186;-73
2023/06/11 07:50:34;;;;;;;6.73;6.13;;;;;;;;;;5034238;28;20174;-73
2023/06/11 07:52:59;;;;;;;6.90;5.30;;;;;;;;;;5051386;28;20200;-73
2023/06/11 07:55:24;;;;;;;6.67;6.07;;;;;;;;;;5050380;28;20180;-73
2023/06/11 07:57:49;;;;;;;7.20;6.17;;;;;;;;;;5053666;28;20243;-73
2023/06/11 08:00:16;;;;;;;7.10;6.40;;;;;;;;;;5049390;28;20197;-73
2023/06/11 08:02:42;;;;;;;7.00;6.30;;;;;;;;;;5048273;28;20178;-72
2023/06/11 08:05:10;;;;;;;6.20;5.70;;;;;;;;;;5038037;28;20231;-73
2023/06/11 08:07:35;;;;;;;6.72;6.22;;;;;;;;;;5050316;28;20272;-73
2023/06/11 08:10:00;;;;;;;6.28;5.78;;;;;;;;;;5048509;28;20242;-73
2023/06/11 08:12:25;;;;;;;6.28;5.68;;;;;;;;;;5053685;28;20194;-73
2023/06/11 08:14:50;;;;;;;5.85;5.22;;;;;;;;;;5054804;28;20178;-73
2023/06/11 08:17:16;;;;;;;6.70;6.10;;;;;;;;;;5068724;28;20184;-73
2023/06/11 08:19:41;;;;;;;6.53;5.93;;;;;;;;;;5059400;28;20271;-73
2023/06/11 08:22:06;;;;;;;7.05;6.45;;;;;;;;;;5061068;28;20185;-73
2023/06/11 08:24:32;;;;;;;7.40;6.80;;;;;;;;;;5060918;28;20181;-73
2023/06/11 08:26:57;;;;;;;6.90;6.13;;;;;;;;;;5065209;28;20314;-73
2023/06/11 08:29:22;;;;;;;6.97;5.95;;;;;;;;;;5050837;28;20174;-73
2023/06/11 08:31:47;;;;;;;6.33;5.90;;;;;;;;;;5050728;28;20200;-73
2023/06/11 08:34:13;;;;;;;7.05;6.45;;;;;;;;;;5063786;28;20253;-73
2023/06/11 08:36:40;;;;;;;6.97;6.47;;;;;;;;;;5055961;28;20173;-73
2023/06/11 08:39:05;;;;;;;9.80;6.90;;;;;;;;;;5054612;28;20185;-73
2023/06/11 08:41:31;;;;;;;6.60;6.10;;;;;;;;;;5048684;28;20295;-73
2023/06/11 08:43:56;;;;;;;6.50;5.97;;;;;;;;;;5059977;28;20177;-73
2023/06/11 08:46:22;;;;;;;7.30;6.70;;;;;;;;;;5048057;28;20181;-73
2023/06/11 08:48:50;;;;;;;6.88;6.38;;;;;;;;;;5050762;28;20169;-73
2023/06/11 08:51:16;;;;;;;7.50;6.90;;;;;;;;;;5059522;28;20170;-73
2023/06/11 08:53:41;;;;;;;6.90;6.40;;;;;;;;;;5060365;28;20188;-73
2023/06/11 08:56:07;;;;;;;7.07;6.47;;;;;;;;;;5075924;28;20205;-73
2023/06/11 08:58:33;;;;;;;9.55;6.50;;;;;;;;;;5047465;28;20194;-73
2023/06/11 09:00:58;;;;;;;6.85;6.35;;;;;;;;;;5069055;28;20182;-73
2023/06/11 09:03:23;;;;;;;6.55;6.05;;;;;;;;;;5053218;28;20177;-73
2023/06/11 09:05:49;;;;;;;6.82;6.22;;;;;;;;;;5050182;28;20295;-73
2023/06/11 09:08:15;;;;;;;7.00;6.40;;;;;;;;;;5071783;28;20181;-73
2023/06/11 09:10:47;;;;;;;6.78;6.28;;;;;;;;;;5070886;28;20178;-73
2023/06/11 09:13:12;;;;;;;6.15;5.65;;;;;;;;;;5074330;28;20209;-73
2023/06/11 09:15:45;;;;;;;6.45;5.95;;;;;;;;;;5057368;28;20179;-73
2023/06/11 09:18:10;;;;;;;6.15;5.53;;;;;;;;;;5080980;28;20169;-73
2023/06/11 09:20:36;;;;;;;6.43;5.93;;;;;;;;;;5052353;28;20181;-73
2023/06/11 09:23:01;;;;;;;7.57;5.88;;;;;;;;;;5054182;28;20193;-73
2023/06/11 09:25:30;;;;;;;6.07;5.57;;;;;;;;;;5055776;28;20173;-73
2023/06/11 09:27:56;;;;;;;7.53;6.80;;;;;;;;;;5055260;28;20177;-73
2023/06/11 09:30:21;;;;;;;6.95;6.07;;;;;;;;;;5052393;28;20184;-73
2023/06/11 09:32:47;;;;;;;5.70;5.30;;;;;;;;;;5054805;28;20201;-73
2023/06/11 09:35:13;;;;;;;5.55;5.00;;;;;;;;;;5081456;28;20176;-73
2023/06/11 09:37:51;;;;;;;5.57;5.15;;;;;;;;;;5066928;28;20178;-73
2023/06/11 09:40:17;;;;;;;5.75;5.20;;;;;;;;;;5072467;28;20188;-73
2023/06/11 09:42:43;;;;;;;5.63;5.13;;;;;;;;;;5067066;28;20257;-73
2023/06/11 09:45:13;;;;;;;5.45;5.05;;;;;;;;;;5048838;28;20177;-73
2023/06/11 09:47:39;;;;;;;6.38;5.88;;;;;;;;;;5072489;28;20186;-73
2023/06/11 09:50:05;;;;;;;6.30;5.70;;;;;;;;;;5074663;28;20192;-73
2023/06/11 09:52:31;;;;;;;9.32;5.55;;;;;;;;;;5070301;28;20212;-73
2023/06/11 09:54:56;;;;;;;5.85;5.35;;;;;;;;;;5060190;28;20205;-74
2023/06/11 09:57:21;;;;;;;6.53;5.13;;;;;;;;;;5057784;28;20229;-74
2023/06/11 09:59:47;;;;;;;6.45;5.88;;;;;;;;;;5067124;28;20170;-74
2023/06/11 10:02:13;;;;;;;6.20;5.57;;;;;;;;;;5057503;28;20183;-74
2023/06/11 10:04:38;;;;;;;5.25;4.75;;;;;;;;;;5068788;28;20181;-74
2023/06/11 10:07:04;;;;;;;5.80;5.30;;;;;;;;;;5068552;28;20181;-74
2023/06/11 10:09:31;;;;;;;5.72;4.78;;;;;;;;;;5050449;28;20280;-74
2023/06/11 10:11:56;;;;;;;6.78;4.72;;;;;;;;;;5062916;28;20201;-76
2023/06/11 10:14:22;;;;;;;6.10;5.50;;;;;;;;;;5068362;28;20231;-76
2023/06/11 10:16:48;;;;;;;5.88;5.35;;;;;;;;;;5052704;28;20173;-74
2023/06/11 10:19:14;;;;;;;6.00;5.50;;;;;;;;;;5074481;28;20188;-74
2023/06/11 10:21:44;;;;;;;5.78;5.20;;;;;;;;;;5062784;28;20192;-74
2023/06/11 10:24:20;;;;;;;7.22;5.40;;;;;;;;;;5067110;28;20204;-74
2023/06/11 10:27:01;;;;;;;4.63;4.32;;;;;;;;;;5055196;28;20170;-74
2023/06/11 10:29:27;;;;;;;5.72;5.18;;;;;;;;;;5079962;28;20213;-74
2023/06/11 10:31:55;;;;;;;6.85;5.20;;;;;;;;;;5077913;28;20198;-75
2023/06/11 10:34:20;;;;;;;5.78;5.28;;;;;;;;;;5054692;28;20182;-75
2023/06/11 10:36:46;;;;;;;6.55;5.50;;;;;;;;;;5052276;28;20176;-75
2023/06/11 10:39:22;;;;;;;5.78;5.38;;;;;;;;;;5068975;28;20179;-75
2023/06/11 10:41:57;;;;;;;5.22;4.82;;;;;;;;;;5067816;28;20193;-74
2023/06/11 10:44:23;;;;;;;5.88;5.38;;;;;;;;;;5064465;28;20208;-74
2023/06/11 10:46:49;;;;;;;6.07;5.57;;;;;;;;;;5063983;28;20248;-74
2023/06/11 10:49:15;;;;;;;5.35;4.95;;;;;;;;;;5059842;28;20281;-74
2023/06/11 10:51:40;;;;;;;6.55;5.90;;;;;;;;;;5055855;28;20209;-74
2023/06/11 10:54:07;;;;;;;5.63;4.93;;;;;;;;;;5056430;28;20182;-74
2023/06/11 10:56:35;;;;;;;7.93;5.57;;;;;;;;;;5061503;28;20272;-74
2023/06/11 10:59:01;;;;;;;5.65;5.15;;;;;;;;;;5077241;28;20212;-74
2023/06/11 11:01:27;;;;;;;6.07;5.57;;;;;;;;;;5054857;28;20226;-74
2023/06/11 11:03:52;;;;;;;5.95;5.53;;;;;;;;;;5068550;28;20189;-74
2023/06/11 11:06:28;;;;;;;6.35;5.85;;;;;;;;;;5043450;28;20387;-74
2023/06/11 11:08:55;;;;;;;5.97;5.43;;;;;;;;;;5062706;28;20180;-74
2023/06/11 11:11:21;;;;;;;7.03;5.80;;;;;;;;;;5053381;28;20208;-74
2023/06/11 11:13:46;;;;;;;5.38;4.97;;;;;;;;;;5053825;28;20173;-74
2023/06/11 11:16:11;;;;;;;5.13;4.75;;;;;;;;;;5058945;28;20173;-74
2023/06/11 11:18:36;;;;;;;4.85;4.45;;;;;;;;;;5055107;28;20231;-74
2023/06/11 11:21:02;;;;;;;5.50;5.00;;;;;;;;;;5066602;28;20182;-74
2023/06/11 11:23:27;;;;;;;5.60;5.10;;;;;;;;;;5066968;28;20169;-74
2023/06/11 11:25:52;;;;;;;5.68;5.18;;;;;;;;;;5070545;28;20173;-74
2023/06/11 11:28:17;;;;;;;5.40;4.90;;;;;;;;;;5058391;28;20174;-74
2023/06/11 11:30:42;;;;;;;5.50;5.10;;;;;;;;;;5050314;28;20189;-74
2023/06/11 11:33:08;;;;;;;5.20;4.80;;;;;;;;;;5068349;28;20207;-74
2023/06/11 11:35:44;;;;;;;6.75;5.22;;;;;;;;;;5076699;28;20177;-74
2023/06/11 11:38:09;;;;;;;5.50;5.05;;;;;;;;;;5046798;28;20188;-75
2023/06/11 11:40:36;;;;;;;5.40;4.90;;;;;;;;;;5065619;28;20173;-74
2023/06/11 11:43:01;;;;;;;6.35;5.72;;;;;;;;;;5066925;28;20184;-74
2023/06/11 11:45:31;;;;;;;5.53;5.13;;;;;;;;;;5060366;28;20180;-74
2023/06/11 11:47:56;;;;;;;5.43;4.90;;;;;;;;;;5072595;28;20185;-74
2023/06/11 11:50:30;;;;;;;5.30;4.80;;;;;;;;;;5069449;28;20189;-74
2023/06/11 11:53:03;;;;;;;4.93;4.53;;;;;;;;;;5074907;28;20192;-74
2023/06/11 11:55:29;;;;;;;6.20;5.53;;;;;;;;;;5063914;28;20199;-74
2023/06/11 11:58:07;;;;;;;5.78;5.28;;;;;;;;;;5052679;28;20189;-74
2023/06/11 12:00:34;;;;;;;5.82;5.43;;;;;;;;;;5072495;28;20205;-74
2023/06/11 12:03:06;;;;;;;5.38;4.97;;;;;;;;;;5061714;28;20234;-74
2023/06/11 12:05:32;;;;;;;7.82;5.28;;;;;;;;;;5067025;28;20250;-74
2023/06/11 12:07:57;;;;;;;6.03;5.43;;;;;;;;;;5048525;28;20280;-74
2023/06/11 12:10:24;;;;;;;5.88;5.43;;;;;;;;;;5052868;28;20190;-74
2023/06/11 12:12:50;;;;;;;5.35;4.97;;;;;;;;;;5082471;28;20200;-74
2023/06/11 12:15:15;;;;;;;7.22;5.22;;;;;;;;;;5047891;28;20178;-75
2023/06/11 12:17:40;;;;;;;5.85;5.15;;;;;;;;;;5069322;28;20180;-74
2023/06/11 12:20:06;;;;;;;5.22;4.82;;;;;;;;;;5074870;28;20208;-74
2023/06/11 12:22:31;;;;;;;5.40;5.00;;;;;;;;;;5059109;28;20208;-74
2023/06/11 12:24:56;;;;;;;6.93;5.40;;;;;;;;;;5073048;28;20180;-75
2023/06/11 12:27:22;;;;;;;5.20;4.70;;;;;;;;;;5048326;28;20292;-74
2023/06/11 12:29:53;;;;;;;6.00;5.40;;;;;;;;;;5046008;28;20441;-74
2023/06/11 12:32:20;;;;;;;5.30;4.90;;;;;;;;;;5054343;28;20299;-74
2023/06/11 12:34:45;;;;;;;5.60;5.20;;;;;;;;;;5073000;28;20164;-74
2023/06/11 12:37:10;;;;;;;6.72;5.63;;;;;;;;;;5052354;28;20267;-74
2023/06/11 12:39:36;;;;;;;5.22;4.82;;;;;;;;;;5074646;28;20192;-74
2023/06/11 12:42:01;;;;;;;8.35;5.10;;;;;;;;;;5055134;28;20179;-74
2023/06/11 12:44:26;;;;;;;5.53;5.03;;;;;;;;;;5070057;28;20207;-74
2023/06/11 12:46:51;;;;;;;5.18;4.78;;;;;;;;;;5055020;28;20181;-74
2023/06/11 12:49:17;;;;;;;5.55;5.13;;;;;;;;;;5071079;28;20188;-75
2023/06/11 12:51:45;;;;;;;6.63;5.75;;;;;;;;;;5060771;28;20201;-74
2023/06/11 12:54:12;;;;;;;5.43;5.03;;;;;;;;;;5083164;28;20170;-74
2023/06/11 12:56:37;;;;;;;6.05;5.50;;;;;;;;;;5050213;28;20229;-74
2023/06/11 12:59:02;;;;;;;6.20;5.68;;;;;;;;;;5081440;28;20212;-74
2023/06/11 13:01:28;;;;;;;6.28;5.60;;;;;;;;;;5067062;28;20197;-74
2023/06/11 13:03:53;;;;;;;5.53;5.03;;;;;;;;;;5075231;28;20178;-74
2023/06/11 13:06:18;;;;;;;6.68;4.80;;;;;;;;;;5052350;28;20252;-74
2023/06/11 13:08:43;;;;;;;6.47;5.97;;;;;;;;;;5080301;28;20168;-74
2023/06/11 13:11:09;;;;;;;5.90;5.38;;;;;;;;;;5081803;28;20209;-74
2023/06/11 13:13:34;;;;;;;5.30;4.90;;;;;;;;;;5060279;28;20288;-74
2023/06/11 13:15:59;;;;;;;5.28;4.78;;;;;;;;;;5043900;28;20181;-74
2023/06/11 13:18:24;;;;;;;4.93;4.53;;;;;;;;;;5072124;28;20181;-74
2023/06/11 13:20:50;;;;;;;5.13;4.38;;;;;;;;;;5056227;28;20193;-74
2023/06/11 13:23:19;;;;;;;6.00;5.43;;;;;;;;;;5077384;28;20181;-74
2023/06/11 13:25:44;;;;;;;5.50;5.00;;;;;;;;;;5075996;28;20174;-74
2023/06/11 13:28:09;;;;;;;6.07;5.25;;;;;;;;;;5073230;28;20182;-74
2023/06/11 13:30:35;;;;;;;6.18;5.15;;;;;;;;;;5075680;28;20188;-74
2023/06/11 13:33:00;;;;;;;5.82;5.20;;;;;;;;;;5075927;28;20205;-74
2023/06/11 13:35:25;;;;;;;10.02;6.10;;;;;;;;;;5073983;28;20169;-74
2023/06/11 13:37:50;;;;;;;4.90;4.55;;;;;;;;;;5077910;28;20173;-74
2023/06/11 13:40:17;;;;;;;6.18;4.63;;;;;;;;;;5057049;28;20261;-74
2023/06/11 13:42:42;;;;;;;5.93;5.43;;;;;;;;;;5082242;28;20175;-74
2023/06/11 13:45:08;;;;;;;5.72;5.00;;;;;;;;;;5071526;28;20174;-74
2023/06/11 13:47:33;;;;;;;5.75;5.25;;;;;;;;;;5074628;28;20246;-74
2023/06/11 13:49:58;;;;;;;5.50;5.00;;;;;;;;;;5052733;28;20201;-75
2023/06/11 13:52:24;;;;;;;6.50;5.10;;;;;;;;;;5065785;28;20450;-74
2023/06/11 13:54:49;;;;;;;5.35;4.95;;;;;;;;;;5059125;28;20174;-74
2023/06/11 13:57:14;;;;;;;5.82;5.32;;;;;;;;;;5054846;28;20197;-74
2023/06/11 13:59:40;;;;;;;5.53;5.05;;;;;;;;;;5075828;28;20185;-74
2023/06/11 14:02:05;;;;;;;6.30;5.00;;;;;;;;;;5069728;28;20222;-74
2023/06/11 14:04:31;;;;;;;5.53;5.13;;;;;;;;;;5066417;28;20196;-74
2023/06/11 14:06:56;;;;;;;6.90;5.05;;;;;;;;;;5076133;28;20225;-74
2023/06/11 14:09:21;;;;;;;5.47;5.07;;;;;;;;;;5057623;28;20184;-74
2023/06/11 14:11:46;;;;;;;5.47;4.97;;;;;;;;;;5077264;28;20201;-74
2023/06/11 14:14:12;;;;;;;5.13;4.72;;;;;;;;;;5067917;28;20185;-73
2023/06/11 14:16:37;;;;;;;6.00;5.40;;;;;;;;;;5071507;28;20168;-74
2023/06/11 14:19:02;;;;;;;7.72;5.00;;;;;;;;;;5048733;28;20227;-74
2023/06/11 14:21:28;;;;;;;5.10;4.70;;;;;;;;;;5055728;28;20169;-74
2023/06/11 14:23:53;;;;;;;5.80;5.30;;;;;;;;;;5070604;28;20260;-74
2023/06/11 14:26:18;;;;;;;5.80;5.40;;;;;;;;;;5083688;28;20421;-74
2023/06/11 14:28:43;;;;;;;5.10;4.70;;;;;;;;;;5062258;28;20166;-74
2023/06/11 14:31:08;;;;;;;5.25;4.75;;;;;;;;;;5073499;28;20463;-74
2023/06/11 14:33:34;;;;;;;5.28;4.78;;;;;;;;;;5077443;28;20209;-74
2023/06/11 14:36:04;;;;;;;6.03;5.55;;;;;;;;;;5070429;28;20210;-74